Time;durP1;ratioP1;P1;durP2;ratioP2;P2;SDS_P1;SDS_P2;PMS_P1;PMS_P2;Temp;Humidity;BMP_temperature;BMP_pressure;BME280_temperature;BME280_humidity;BME280_pressure;Samples;Min_cycle;Max_cycle;Signal;HPM_P1;HPM_P2
2023/08/03 00:02:19;;;;;;;3.05;0.70;;;;;;;22.80;56.52;98936.00;4984730;28;20137;-74
2023/08/03 00:04:44;;;;;;;2.08;0.60;;;;;;;22.79;56.39;98946.81;4985799;28;20403;-71
2023/08/03 00:07:10;;;;;;;2.33;0.50;;;;;;;22.79;56.46;98946.81;4986245;28;20042;-72
2023/08/03 00:09:35;;;;;;;2.95;0.60;;;;;;;22.78;56.52;98951.34;4985444;28;20042;-72
2023/08/03 00:12:00;;;;;;;1.25;0.55;;;;;;;22.77;56.79;98941.72;4985833;28;20057;-71
2023/08/03 00:14:26;;;;;;;1.43;0.57;;;;;;;22.77;56.74;98949.69;4985984;28;20125;-73
2023/08/03 00:16:51;;;;;;;1.48;0.50;;;;;;;22.76;56.76;98956.00;4985093;28;20260;-71
2023/08/03 00:19:16;;;;;;;2.60;0.77;;;;;;;22.76;56.54;98950.69;4985516;28;20041;-72
2023/08/03 00:21:41;;;;;;;2.22;0.70;;;;;;;22.75;56.96;98956.22;4985416;28;20038;-71
2023/08/03 00:24:07;;;;;;;3.75;1.27;;;;;;;22.75;56.62;98959.69;4999422;28;20041;-72
2023/08/03 00:26:33;;;;;;;1.88;0.80;;;;;;;22.75;56.87;98959.69;4984619;28;20030;-77
2023/08/03 00:28:59;;;;;;;1.80;0.60;;;;;;;22.75;56.90;98961.53;4983534;28;20046;-71
2023/08/03 00:31:24;;;;;;;3.72;0.80;;;;;;;22.74;56.68;98965.22;4984425;28;20077;-71
2023/08/03 00:33:49;;;;;;;3.20;0.75;;;;;;;22.74;56.75;98963.34;4984441;28;20120;-76
2023/08/03 00:36:14;;;;;;;2.63;0.80;;;;;;;22.74;56.71;98973.16;4984405;28;20026;-70
2023/08/03 00:38:40;;;;;;;2.65;0.80;;;;;;;22.72;56.79;98973.38;4984271;28;20359;-76
2023/08/03 00:41:05;;;;;;;3.65;1.08;;;;;;;22.73;56.55;98990.94;4984504;28;20030;-70
2023/08/03 00:43:30;;;;;;;2.65;0.85;;;;;;;22.72;56.69;98985.84;4984247;28;20061;-76
2023/08/03 00:45:56;;;;;;;2.58;1.00;;;;;;;22.72;56.84;98994.63;4983422;28;20038;-70
2023/08/03 00:48:21;;;;;;;5.43;1.17;;;;;;;22.73;56.68;99012.19;4984885;28;20064;-74
2023/08/03 00:50:46;;;;;;;4.43;1.10;;;;;;;22.71;57.07;99008.09;4983697;28;20042;-70
2023/08/03 00:53:12;;;;;;;3.65;1.20;;;;;;;22.71;56.97;99010.75;4984437;28;20868;-73
2023/08/03 00:55:40;;;;;;;3.00;1.00;;;;;;;22.71;56.74;99003.59;4982827;28;20033;-71
2023/08/03 00:58:05;;;;;;;3.55;1.10;;;;;;;22.71;56.93;99013.41;4983148;28;20629;-78
2023/08/03 01:00:31;;;;;;;3.60;1.17;;;;;;;22.71;56.75;99022.16;4983882;28;20044;-71
2023/08/03 01:02:56;;;;;;;3.38;1.20;;;;;;;22.70;57.04;99035.66;4983193;28;20085;-76
2023/08/03 01:05:21;;;;;;;3.80;1.10;;;;;;;22.70;56.78;99036.50;4983340;28;20034;-71
2023/08/03 01:07:47;;;;;;;4.78;1.25;;;;;;;22.70;56.73;99038.31;4983002;28;20030;-74
2023/08/03 01:10:12;;;;;;;3.85;1.10;;;;;;;22.70;56.98;99035.66;4983542;28;20030;-71
2023/08/03 01:12:38;;;;;;;4.07;1.27;;;;;;;22.70;56.96;99041.78;4982196;28;20058;-71
2023/08/03 01:15:03;;;;;;;5.03;1.45;;;;;;;22.69;57.02;99045.47;4983375;28;20542;-71
2023/08/03 01:17:28;;;;;;;3.20;1.10;;;;;;;22.68;57.06;99054.44;4983462;28;20532;-71
2023/08/03 01:19:54;;;;;;;3.28;1.00;;;;;;;22.67;57.15;99050.16;4982307;28;20514;-76
2023/08/03 01:22:21;;;;;;;4.60;1.40;;;;;;;22.67;56.77;99062.59;4983223;28;20121;-76
2023/08/03 01:24:46;;;;;;;3.38;1.20;;;;;;;22.66;56.89;99064.44;4982643;28;20523;-71
2023/08/03 01:27:11;;;;;;;4.07;1.13;;;;;;;22.67;56.84;99073.22;4982490;28;20112;-76
2023/08/03 01:29:39;;;;;;;2.63;1.10;;;;;;;22.66;57.16;99071.59;4983029;28;20042;-79
2023/08/03 01:32:05;;;;;;;4.03;1.42;;;;;;;22.67;56.96;99081.19;4983000;28;20045;-77
2023/08/03 01:34:31;;;;;;;3.40;1.27;;;;;;;22.66;57.27;99077.72;4982174;28;20038;-71
2023/08/03 01:36:57;;;;;;;4.13;1.45;;;;;;;22.66;57.20;99088.34;4982727;28;20567;-72
2023/08/03 01:39:27;;;;;;;3.85;1.17;;;;;;;22.65;56.88;99086.69;4982049;28;20129;-72
2023/08/03 01:41:52;;;;;;;3.22;1.05;;;;;;;22.62;56.91;99079.09;4981807;28;20034;-78
2023/08/03 01:44:25;;;;;;;4.13;1.48;;;;;;;22.64;57.27;99087.72;4982762;28;20052;-72
2023/08/03 01:46:52;;;;;;;3.35;1.13;;;;;;;22.65;57.13;99094.66;4981827;28;20061;-71
2023/08/03 01:49:18;;;;;;;2.95;1.00;;;;;;;22.65;57.10;99078.72;4982475;28;20088;-72
2023/08/03 01:51:43;;;;;;;2.17;1.00;;;;;;;22.64;57.18;99093.03;4980212;28;20034;-72
2023/08/03 01:54:10;;;;;;;4.50;1.08;;;;;;;22.62;57.23;99090.56;4981829;28;21214;-74
2023/08/03 01:56:38;;;;;;;3.80;1.10;;;;;;;22.63;57.23;99088.72;4982473;28;20035;-70
2023/08/03 01:59:04;;;;;;;3.03;1.10;;;;;;;22.64;56.83;99090.38;4981994;28;20145;-71
2023/08/03 02:01:30;;;;;;;3.40;1.00;;;;;;;22.63;57.11;99092.19;4981614;28;20034;-79
2023/08/03 02:03:55;;;;;;;2.70;0.98;;;;;;;22.64;57.11;99093.03;4981711;28;20328;-71
2023/08/03 02:06:21;;;;;;;2.67;0.85;;;;;;;22.63;57.01;99094.03;4981366;28;20688;-76
2023/08/03 02:08:46;;;;;;;2.67;0.90;;;;;;;22.64;57.31;99099.16;4980562;28;20066;-70
2023/08/03 02:11:11;;;;;;;3.20;1.08;;;;;;;22.63;57.07;99086.06;4981721;28;20157;-73
2023/08/03 02:13:36;;;;;;;4.35;1.30;;;;;;;22.61;57.06;99086.25;4981440;28;20061;-75
2023/08/03 02:16:03;;;;;;;3.00;1.03;;;;;;;22.62;56.94;99097.69;4980884;28;20034;-74
2023/08/03 02:18:30;;;;;;;4.07;1.00;;;;;;;22.61;57.03;99088.91;4981945;28;20867;-72
2023/08/03 02:20:56;;;;;;;3.65;1.13;;;;;;;22.61;57.08;99085.44;4982244;28;20454;-71
2023/08/03 02:23:22;;;;;;;3.45;1.08;;;;;;;22.61;57.23;99083.59;4981605;28;20045;-79
2023/08/03 02:25:47;;;;;;;3.58;1.20;;;;;;;22.60;57.28;99083.81;4982487;28;20034;-71
2023/08/03 02:28:12;;;;;;;2.63;1.00;;;;;;;22.59;57.00;99079.53;4982820;28;20034;-78
2023/08/03 02:30:39;;;;;;;4.23;1.20;;;;;;;22.59;56.87;99085.66;4981839;28;20272;-70
2023/08/03 02:33:05;;;;;;;3.45;1.20;;;;;;;22.60;57.15;99078.50;4982454;28;20276;-73
2023/08/03 02:35:31;;;;;;;4.35;1.35;;;;;;;22.59;57.16;99080.34;4981916;28;20041;-73
2023/08/03 02:37:56;;;;;;;4.00;1.20;;;;;;;22.59;56.78;99096.28;4980974;28;20041;-71
2023/08/03 02:40:21;;;;;;;4.85;1.52;;;;;;;22.61;57.28;99093.41;4981813;28;20046;-71
2023/08/03 02:42:47;;;;;;;5.18;1.45;;;;;;;22.60;56.88;99091.78;4981337;28;20034;-76
2023/08/03 02:45:12;;;;;;;4.47;1.38;;;;;;;22.60;57.10;99094.44;4982135;28;20034;-71
2023/08/03 02:47:37;;;;;;;3.55;1.33;;;;;;;22.59;56.85;99085.66;4982034;28;20250;-74
2023/08/03 02:50:03;;;;;;;5.23;1.70;;;;;;;22.59;57.10;99084.84;4981757;28;20038;-79
2023/08/03 02:52:29;;;;;;;5.18;1.30;;;;;;;22.57;57.07;99082.38;4982654;28;21542;-71
2023/08/03 02:54:54;;;;;;;4.43;1.20;;;;;;;22.57;57.23;99078.88;4982620;28;20092;-72
2023/08/03 02:57:19;;;;;;;6.43;1.73;;;;;;;22.58;56.95;99083.19;4982509;28;20030;-73
2023/08/03 02:59:44;;;;;;;5.90;1.50;;;;;;;22.58;57.09;99083.19;4982219;28;20042;-71
2023/08/03 03:02:10;;;;;;;5.17;1.40;;;;;;;22.58;56.97;99093.81;4982529;28;20030;-72
2023/08/03 03:04:35;;;;;;;5.20;1.63;;;;;;;22.58;56.89;99093.81;4980465;28;20766;-72
2023/08/03 03:07:00;;;;;;;5.68;1.63;;;;;;;22.57;56.97;99098.31;4981871;28;20034;-70
2023/08/03 03:09:26;;;;;;;5.25;1.33;;;;;;;22.58;56.80;99104.44;4982359;28;20483;-71
2023/08/03 03:11:55;;;;;;;4.43;1.40;;;;;;;22.54;57.39;99105.81;4981494;28;20040;-71
2023/08/03 03:14:22;;;;;;;6.28;1.50;;;;;;;22.56;57.02;99109.94;4981089;28;20059;-73
2023/08/03 03:16:47;;;;;;;4.78;1.25;;;;;;;22.55;57.09;99110.94;4981879;28;20097;-71
2023/08/03 03:19:13;;;;;;;5.82;1.60;;;;;;;22.55;56.96;99112.78;4982819;28;20035;-71
2023/08/03 03:21:38;;;;;;;4.10;1.23;;;;;;;22.55;56.85;99112.78;4985583;28;20480;-72
2023/08/03 03:24:03;;;;;;;7.28;1.70;;;;;;;22.55;56.64;99116.25;4986058;28;20287;-71
2023/08/03 03:26:29;;;;;;;4.82;1.42;;;;;;;22.55;56.62;99118.91;4984976;28;20034;-71
2023/08/03 03:28:54;;;;;;;4.55;1.38;;;;;;;22.55;56.99;99115.44;4985512;28;20495;-78
2023/08/03 03:31:19;;;;;;;5.00;1.50;;;;;;;22.56;56.81;99122.41;4984928;28;20069;-71
2023/08/03 03:33:45;;;;;;;5.10;1.50;;;;;;;22.54;57.02;99124.41;4983579;28;20026;-77
2023/08/03 03:36:10;;;;;;;5.55;1.50;;;;;;;22.54;57.05;99117.28;4984588;28;20038;-71
2023/08/03 03:38:35;;;;;;;5.40;1.40;;;;;;;22.52;56.55;99129.91;4985215;28;20391;-74
2023/08/03 03:41:00;;;;;;;5.65;1.80;;;;;;;22.53;56.79;99131.56;4984088;28;20483;-71
2023/08/03 03:43:26;;;;;;;4.70;1.30;;;;;;;22.52;56.57;99145.03;4985205;28;20034;-74
2023/08/03 03:45:51;;;;;;;4.43;1.23;;;;;;;22.53;57.05;99131.56;4984039;28;20624;-72
2023/08/03 03:48:16;;;;;;;5.13;1.30;;;;;;;22.52;57.10;99151.16;4985893;28;20372;-72
2023/08/03 03:50:43;;;;;;;5.47;1.42;;;;;;;22.52;57.11;99153.78;4990376;28;20471;-70
2023/08/03 03:53:09;;;;;;;4.38;1.27;;;;;;;22.51;56.69;99162.78;4994319;28;20121;-73
2023/08/03 03:55:34;;;;;;;4.57;1.23;;;;;;;22.51;56.55;99170.75;4984747;28;20152;-72
2023/08/03 03:58:00;;;;;;;3.97;1.02;;;;;;;22.51;57.08;99176.06;4984497;28;20121;-72
2023/08/03 04:00:26;;;;;;;4.93;1.38;;;;;;;22.52;57.00;99177.69;4984125;28;20399;-72
2023/08/03 04:02:52;;;;;;;3.80;1.25;;;;;;;22.52;56.53;99188.31;4983973;28;20034;-79
2023/08/03 04:05:17;;;;;;;5.32;1.48;;;;;;;22.50;57.09;99187.69;4984395;28;20054;-71
2023/08/03 04:07:42;;;;;;;3.33;1.08;;;;;;;22.50;56.74;99185.03;4983270;28;20555;-72
2023/08/03 04:10:08;;;;;;;3.72;1.20;;;;;;;22.50;56.77;99189.53;4984230;28;20037;-78
2023/08/03 04:12:33;;;;;;;4.85;1.38;;;;;;;22.50;56.65;99197.50;4983856;28;20483;-71
2023/08/03 04:14:58;;;;;;;4.35;1.35;;;;;;;22.51;56.71;99193.81;4983521;28;20034;-77
2023/08/03 04:17:24;;;;;;;3.83;1.15;;;;;;;22.50;56.98;99203.63;4982781;28;20061;-71
2023/08/03 04:19:49;;;;;;;3.70;1.27;;;;;;;22.50;56.60;99202.81;4983414;28;20041;-76
2023/08/03 04:22:14;;;;;;;4.80;1.25;;;;;;;22.50;56.88;99200.16;4983191;28;20033;-70
2023/08/03 04:24:40;;;;;;;5.63;1.25;;;;;;;22.51;57.14;99207.09;4983985;28;20546;-74
2023/08/03 04:27:05;;;;;;;3.97;1.40;;;;;;;22.49;56.83;99209.94;4983540;28;20121;-71
2023/08/03 04:29:31;;;;;;;5.57;1.65;;;;;;;22.49;57.07;99222.38;4983353;28;20623;-70
2023/08/03 04:31:56;;;;;;;5.05;1.30;;;;;;;22.48;57.01;99216.28;4982545;28;20030;-74
2023/08/03 04:34:21;;;;;;;4.03;1.20;;;;;;;22.48;56.82;99232.19;4983458;28;20041;-74
2023/08/03 04:36:47;;;;;;;4.95;1.40;;;;;;;22.49;56.99;99228.50;4983016;28;20043;-72
2023/08/03 04:39:13;;;;;;;3.10;1.02;;;;;;;22.48;56.62;99231.34;4983114;28;20034;-71
2023/08/03 04:41:38;;;;;;;4.50;1.10;;;;;;;22.50;56.88;99253.25;4982747;28;20037;-75
2023/08/03 04:44:03;;;;;;;5.10;1.30;;;;;;;22.49;56.71;99259.56;4981439;28;20093;-78
2023/08/03 04:46:29;;;;;;;3.88;1.17;;;;;;;22.46;57.02;99261.59;4983742;28;20275;-72
2023/08/03 04:48:54;;;;;;;4.78;1.50;;;;;;;22.49;57.07;99256.91;4982772;28;20065;-77
2023/08/03 04:51:20;;;;;;;2.75;1.13;;;;;;;22.47;56.84;99259.75;4981766;28;20495;-70
2023/08/03 04:53:45;;;;;;;3.83;1.10;;;;;;;22.48;56.94;99260.56;4983028;28;20031;-73
2023/08/03 04:56:10;;;;;;;2.78;0.90;;;;;;;22.48;57.00;99271.16;4983189;28;20038;-71
2023/08/03 04:58:35;;;;;;;4.07;1.13;;;;;;;22.47;56.94;99265.06;4982584;28;20034;-73
2023/08/03 05:01:01;;;;;;;3.65;1.00;;;;;;;22.46;56.91;99271.34;4982785;28;20440;-72
2023/08/03 05:03:26;;;;;;;4.20;1.65;;;;;;;22.46;56.62;99268.72;4982622;28;20035;-72
2023/08/03 05:05:51;;;;;;;4.45;1.17;;;;;;;22.46;56.48;99284.63;4982506;28;20177;-73
2023/08/03 05:08:17;;;;;;;3.08;1.00;;;;;;;22.46;57.11;99274.00;4983372;28;20030;-72
2023/08/03 05:10:42;;;;;;;3.15;1.00;;;;;;;22.44;57.03;99284.81;4982195;28;20030;-71
2023/08/03 05:13:07;;;;;;;4.00;0.93;;;;;;;22.45;56.85;99290.97;4982615;28;20050;-71
2023/08/03 05:15:33;;;;;;;4.15;1.25;;;;;;;22.46;57.00;99295.25;4982835;28;20042;-71
2023/08/03 05:18:01;;;;;;;3.53;0.90;;;;;;;22.46;57.06;99295.25;4981599;28;20034;-71
2023/08/03 05:20:27;;;;;;;3.05;0.98;;;;;;;22.45;56.83;99302.41;4982842;28;20395;-71
2023/08/03 05:22:52;;;;;;;2.33;0.80;;;;;;;22.45;57.19;99310.38;4982567;28;20031;-71
2023/08/03 05:25:18;;;;;;;1.93;0.73;;;;;;;22.44;57.13;99314.03;4982129;28;20034;-73
2023/08/03 05:27:43;;;;;;;4.23;1.00;;;;;;;22.44;57.00;99316.66;4982779;28;20275;-71
2023/08/03 05:30:09;;;;;;;3.03;0.90;;;;;;;22.44;57.11;99327.28;4982987;28;20276;-73
2023/08/03 05:32:34;;;;;;;2.90;0.90;;;;;;;22.44;56.69;99319.31;4982137;28;20122;-72
2023/08/03 05:35:00;;;;;;;3.42;1.10;;;;;;;22.45;57.15;99328.13;4996765;28;20045;-79
2023/08/03 05:37:25;;;;;;;3.05;0.90;;;;;;;22.44;56.86;99329.13;4983092;28;20030;-71
2023/08/03 05:39:50;;;;;;;2.70;0.95;;;;;;;22.43;57.18;99338.09;4981449;28;20780;-74
2023/08/03 05:42:17;;;;;;;2.83;1.00;;;;;;;22.43;56.92;99344.25;4982807;28;20034;-72
2023/08/03 05:44:42;;;;;;;4.68;1.10;;;;;;;22.43;57.18;99336.28;4982415;28;20271;-71
2023/08/03 05:47:10;;;;;;;2.15;0.82;;;;;;;22.43;57.14;99346.91;4982198;28;20030;-76
2023/08/03 05:49:37;;;;;;;2.50;0.90;;;;;;;22.43;56.78;99354.03;4981144;28;20043;-72
2023/08/03 05:52:02;;;;;;;4.85;1.15;;;;;;;22.43;56.63;99356.69;4982159;28;20161;-72
2023/08/03 05:54:28;;;;;;;3.13;0.95;;;;;;;22.43;57.18;99359.34;4982063;28;20383;-75
2023/08/03 05:56:53;;;;;;;2.15;0.80;;;;;;;22.42;56.68;99347.91;4981184;28;20026;-72
2023/08/03 05:59:22;;;;;;;3.95;1.10;;;;;;;22.43;57.13;99375.25;4982260;28;20505;-72
2023/08/03 06:01:48;;;;;;;4.30;1.17;;;;;;;22.43;57.28;99372.59;4979981;28;20041;-70
2023/08/03 06:04:16;;;;;;;2.17;0.93;;;;;;;22.42;57.07;99371.78;4981837;28;20038;-71
2023/08/03 06:06:41;;;;;;;4.32;1.02;;;;;;;22.42;56.64;99374.44;4981498;28;20037;-76
2023/08/03 06:09:13;;;;;;;3.30;1.05;;;;;;;22.40;56.73;99389.75;4982253;28;20034;-70
2023/08/03 06:11:39;;;;;;;3.25;0.93;;;;;;;22.42;56.67;99393.03;4982291;28;20117;-71
2023/08/03 06:14:10;;;;;;;3.40;0.95;;;;;;;22.41;56.68;99399.38;4981736;28;20050;-78
2023/08/03 06:16:35;;;;;;;2.08;0.80;;;;;;;22.42;56.86;99392.22;4982084;28;20117;-72
2023/08/03 06:19:00;;;;;;;4.05;1.08;;;;;;;22.42;56.94;99410.78;4982145;28;20643;-72
2023/08/03 06:21:27;;;;;;;2.88;1.13;;;;;;;22.42;56.69;99405.47;4982004;28;20034;-76
2023/08/03 06:23:55;;;;;;;4.85;1.52;;;;;;;22.43;57.06;99407.94;4982713;28;20030;-70
2023/08/03 06:26:21;;;;;;;3.15;1.00;;;;;;;22.42;56.72;99410.78;4982073;28;20393;-71
2023/08/03 06:28:49;;;;;;;5.07;1.10;;;;;;;22.42;57.16;99413.44;4981330;28;20065;-74
2023/08/03 06:31:19;;;;;;;3.58;1.00;;;;;;;22.39;56.80;99411.97;4982321;28;20045;-71
2023/08/03 06:33:46;;;;;;;3.28;0.80;;;;;;;22.41;56.83;99414.44;4982491;28;20080;-71
2023/08/03 06:36:17;;;;;;;3.50;1.10;;;;;;;22.40;57.04;99418.13;4980136;28;20856;-78
2023/08/03 06:38:43;;;;;;;2.60;0.93;;;;;;;22.41;57.03;99422.41;4982209;28;20026;-71
2023/08/03 06:41:09;;;;;;;4.18;1.10;;;;;;;22.41;57.03;99425.06;4982712;28;20667;-71
2023/08/03 06:43:35;;;;;;;3.42;0.88;;;;;;;22.41;56.92;99431.22;4981163;28;20042;-72
2023/08/03 06:46:00;;;;;;;3.03;0.80;;;;;;;22.40;56.69;99445.47;4981284;28;20026;-77
2023/08/03 06:48:26;;;;;;;3.78;1.00;;;;;;;22.41;57.09;99447.13;4981718;28;20447;-70
2023/08/03 06:50:51;;;;;;;4.20;0.98;;;;;;;22.40;57.02;99445.47;4980758;28;20035;-73
2023/08/03 06:53:16;;;;;;;3.50;0.98;;;;;;;22.40;56.90;99452.63;4980922;28;20039;-78
2023/08/03 06:55:48;;;;;;;3.42;0.95;;;;;;;22.41;56.90;99459.56;4981642;28;20065;-71
2023/08/03 06:58:13;;;;;;;3.85;0.80;;;;;;;22.41;57.09;99464.88;4979934;28;20141;-79
2023/08/03 07:00:41;;;;;;;2.40;0.80;;;;;;;22.40;56.83;99466.72;4981071;28;20145;-72
2023/08/03 07:03:07;;;;;;;3.53;0.80;;;;;;;22.40;56.75;99477.34;4980938;28;20026;-71
2023/08/03 07:05:32;;;;;;;4.60;0.90;;;;;;;22.40;56.95;99472.03;4979441;28;20045;-70
2023/08/03 07:07:57;;;;;;;5.97;0.90;;;;;;;22.41;56.68;99484.31;4980605;28;20712;-76
2023/08/03 07:10:22;;;;;;;9.43;1.50;;;;;;;22.39;57.54;99483.63;4980379;28;20129;-72
2023/08/03 07:12:48;;;;;;;9.73;1.17;;;;;;;22.40;57.16;99490.59;4980833;28;20783;-78
2023/08/03 07:15:13;;;;;;;3.45;0.93;;;;;;;22.40;57.39;99490.59;4981671;28;20859;-71
2023/08/03 07:17:39;;;;;;;4.32;1.10;;;;;;;22.41;57.21;99510.84;4980376;28;20492;-75
2023/08/03 07:20:07;;;;;;;3.25;0.98;;;;;;;22.40;57.34;99511.03;4980921;28;20178;-76
2023/08/03 07:22:33;;;;;;;6.22;1.00;;;;;;;22.43;57.41;99505.31;4979564;28;20562;-77
2023/08/03 07:24:58;;;;;;;3.65;1.13;;;;;;;22.43;57.16;99507.97;4980104;28;20117;-69
2023/08/03 07:27:24;;;;;;;5.28;1.02;;;;;;;22.42;57.23;99519.63;4980915;28;20026;-70
2023/08/03 07:29:49;;;;;;;4.15;1.13;;;;;;;22.42;57.28;99522.28;4980692;28;20092;-70
2023/08/03 07:32:14;;;;;;;4.18;0.90;;;;;;;22.40;58.00;99517.16;4978300;28;20128;-70
2023/08/03 07:34:40;;;;;;;3.45;0.88;;;;;;;22.40;57.40;99519.81;4980479;28;20391;-77
2023/08/03 07:37:05;;;;;;;3.75;0.98;;;;;;;22.36;57.45;99510.56;4980562;28;20402;-71
2023/08/03 07:39:31;;;;;;;5.30;1.25;;;;;;;22.40;57.88;99522.47;4978758;28;20494;-75
2023/08/03 07:41:57;;;;;;;4.93;0.88;;;;;;;22.41;57.35;99518.81;4979210;28;20049;-71
2023/08/03 07:44:22;;;;;;;5.35;1.20;;;;;;;22.43;58.00;99526.56;4980911;28;20038;-74
2023/08/03 07:46:47;;;;;;;4.97;1.48;;;;;;;22.42;57.64;99531.06;4979887;28;20626;-75
2023/08/03 07:49:13;;;;;;;5.53;1.02;;;;;;;22.42;57.80;99531.06;4981188;28;20039;-73
2023/08/03 07:51:39;;;;;;;4.05;1.13;;;;;;;22.42;57.76;99525.75;4980592;28;20026;-74
2023/08/03 07:54:05;;;;;;;3.92;0.88;;;;;;;22.44;57.93;99537.00;4980596;28;20027;-74
2023/08/03 07:56:30;;;;;;;2.95;0.88;;;;;;;22.44;57.77;99552.91;4980561;28;20038;-77
2023/08/03 07:58:56;;;;;;;6.45;1.75;;;;;;;22.41;57.59;99541.84;4980392;28;20034;-69
2023/08/03 08:01:22;;;;;;;5.55;1.67;;;;;;;22.40;58.04;99546.34;4980098;28;20121;-71
2023/08/03 08:03:48;;;;;;;4.25;1.10;;;;;;;22.41;58.30;99553.31;4980990;28;20029;-74
2023/08/03 08:06:17;;;;;;;5.22;1.40;;;;;;;22.44;58.09;99552.09;4982076;28;20022;-71
2023/08/03 08:08:43;;;;;;;6.93;1.20;;;;;;;22.44;58.00;99574.16;4983718;28;20042;-73
2023/08/03 08:11:10;;;;;;;5.75;1.30;;;;;;;22.44;58.20;99578.66;4980145;28;20034;-74
2023/08/03 08:13:36;;;;;;;4.07;1.00;;;;;;;22.40;58.49;99582.69;4980948;28;20137;-71
2023/08/03 08:16:04;;;;;;;5.20;1.10;;;;;;;22.37;58.42;99583.88;4981479;28;20117;-77
2023/08/03 08:18:34;;;;;;;5.88;1.17;;;;;;;22.33;58.89;99593.19;4982574;28;20924;-73
2023/08/03 08:21:05;;;;;;;5.63;1.25;;;;;;;22.28;59.35;99590.22;4981258;28;20045;-72
2023/08/03 08:23:31;;;;;;;5.50;1.33;;;;;;;22.26;59.23;99602.88;4983304;28;20180;-73
2023/08/03 08:25:57;;;;;;;5.25;1.15;;;;;;;22.25;59.41;99610.00;4981612;28;20412;-71
2023/08/03 08:28:23;;;;;;;5.18;1.20;;;;;;;22.27;59.06;99607.16;4982554;28;20045;-71
2023/08/03 08:30:49;;;;;;;4.97;1.10;;;;;;;22.28;59.23;99622.91;4982582;28;20030;-78
2023/08/03 08:33:15;;;;;;;5.43;1.35;;;;;;;22.28;58.92;99630.03;4982655;28;20041;-78
2023/08/03 08:35:41;;;;;;;4.30;1.30;;;;;;;22.28;59.30;99622.91;4981038;28;20031;-78
2023/08/03 08:38:10;;;;;;;6.18;1.10;;;;;;;22.30;59.02;99627.25;4982856;28;20043;-76
2023/08/03 08:40:37;;;;;;;5.63;1.40;;;;;;;22.32;59.22;99638.50;4982630;28;20824;-77
2023/08/03 08:43:02;;;;;;;4.93;1.13;;;;;;;22.32;58.99;99631.38;4981290;28;20030;-69
2023/08/03 08:45:35;;;;;;;4.28;1.13;;;;;;;22.32;59.04;99642.00;4981318;28;20039;-69
2023/08/03 08:48:01;;;;;;;2.90;0.82;;;;;;;22.37;59.19;99644.09;4982077;28;20049;-72
2023/08/03 08:50:26;;;;;;;6.45;1.02;;;;;;;22.40;58.67;99649.06;4982190;28;20061;-74
2023/08/03 08:52:53;;;;;;;4.90;1.20;;;;;;;22.39;58.54;99656.16;4986150;28;20508;-76
2023/08/03 08:55:31;;;;;;;4.55;0.93;;;;;;;22.36;58.99;99656.53;4984017;28;20042;-78
2023/08/03 08:58:04;;;;;;;5.10;1.13;;;;;;;22.35;58.84;99665.50;4982793;28;20105;-75
2023/08/03 09:00:29;;;;;;;3.63;1.00;;;;;;;22.38;58.66;99666.97;4982818;28;20045;-74
2023/08/03 09:03:04;;;;;;;3.88;1.00;;;;;;;22.38;58.77;99678.44;4982413;28;20034;-77
2023/08/03 09:05:29;;;;;;;5.30;1.35;;;;;;;22.36;59.04;99675.09;4983726;28;20041;-73
2023/08/03 09:08:02;;;;;;;3.83;0.85;;;;;;;22.33;58.94;99680.78;4982675;28;20030;-76
2023/08/03 09:10:28;;;;;;;6.77;1.40;;;;;;;22.33;58.80;99683.44;4981961;28;20042;-72
2023/08/03 09:12:54;;;;;;;4.43;0.90;;;;;;;22.32;59.01;99678.31;4981781;28;20197;-75
2023/08/03 09:15:37;;;;;;;2.88;0.90;;;;;;;22.30;59.45;99694.41;4982558;28;20800;-76
2023/08/03 09:18:07;;;;;;;2.05;0.77;;;;;;;22.28;58.92;99699.03;4978624;28;20547;-71
2023/08/03 09:20:33;;;;;;;4.00;1.15;;;;;;;22.26;59.17;99712.50;4981880;28;20035;-69
2023/08/03 09:22:59;;;;;;;3.35;1.00;;;;;;;22.26;58.86;99720.47;4981957;28;20096;-71
2023/08/03 09:25:26;;;;;;;4.20;1.48;;;;;;;22.25;59.06;99715.31;4981652;28;20041;-71
2023/08/03 09:27:54;;;;;;;5.13;0.90;;;;;;;22.25;59.47;99723.28;4981673;28;21083;-71
2023/08/03 09:30:20;;;;;;;2.95;0.98;;;;;;;22.25;59.41;99731.25;4982736;28;20045;-74
2023/08/03 09:32:46;;;;;;;4.20;1.05;;;;;;;22.27;59.45;99746.00;4982199;28;20479;-75
2023/08/03 09:35:21;;;;;;;3.28;0.80;;;;;;;22.26;59.25;99743.53;4982842;28;20038;-81
2023/08/03 09:37:48;;;;;;;5.10;1.20;;;;;;;22.26;59.22;99754.94;4982354;28;20088;-75
2023/08/03 09:40:15;;;;;;;5.05;1.20;;;;;;;22.25;59.36;99758.59;4982213;28;20136;-73
2023/08/03 09:42:41;;;;;;;4.15;1.05;;;;;;;22.25;59.39;99769.22;4982086;28;20096;-77
2023/08/03 09:45:07;;;;;;;2.95;0.90;;;;;;;22.25;59.07;99765.75;4981658;28;20038;-76
2023/08/03 09:47:36;;;;;;;3.70;0.85;;;;;;;22.31;59.06;99774.88;4981661;28;20121;-78
2023/08/03 09:50:05;;;;;;;4.90;1.00;;;;;;;22.32;59.59;99784.47;4981599;28;20475;-74
2023/08/03 09:52:31;;;;;;;2.85;0.85;;;;;;;22.32;59.47;99793.28;4980803;28;20030;-73
2023/08/03 09:55:19;;;;;;;5.40;1.00;;;;;;;22.34;59.10;99790.44;4981515;28;20030;-72
2023/08/03 09:58:02;;;;;;;4.80;1.30;;;;;;;22.33;59.35;99796.75;4981353;28;20057;-75
2023/08/03 10:00:29;;;;;;;4.70;1.10;;;;;;;22.36;58.83;99794.56;4980333;28;20121;-72
2023/08/03 10:03:09;;;;;;;7.97;1.33;;;;;;;22.34;58.90;99803.72;4981289;28;20034;-73
2023/08/03 10:05:39;;;;;;;5.20;1.10;;;;;;;22.33;59.09;99805.53;4980752;28;20033;-74
2023/08/03 10:08:15;;;;;;;4.10;1.20;;;;;;;22.35;59.51;99811.50;4980935;28;20073;-75
2023/08/03 10:10:47;;;;;;;4.63;1.15;;;;;;;22.33;59.20;99824.09;4984436;28;20143;-79
2023/08/03 10:13:14;;;;;;;5.95;1.00;;;;;;;22.33;59.57;99824.09;4978845;28;20522;-73
2023/08/03 10:15:40;;;;;;;5.03;1.20;;;;;;;22.34;59.80;99825.75;4980955;28;20035;-73
2023/08/03 10:18:06;;;;;;;5.45;1.10;;;;;;;22.36;59.60;99828.25;4981616;28;20094;-76
2023/08/03 10:20:32;;;;;;;8.73;1.15;;;;;;;22.37;60.05;99837.88;4980186;28;20046;-73
2023/08/03 10:23:38;;;;;;;4.47;1.23;;;;;;;22.37;59.70;99830.72;4572940;28;10000730;-75
2023/08/03 10:26:04;;;;;;;5.88;1.00;;;;;;;22.40;59.95;99826.91;4983053;28;20254;-77
2023/08/03 10:28:38;;;;;;;3.78;0.73;;;;;;;22.41;60.15;99833.84;4979486;28;20458;-74
2023/08/03 10:31:14;;;;;;;3.17;0.82;;;;;;;22.40;59.96;99838.34;4980696;28;20480;-74
2023/08/03 10:33:46;;;;;;;3.83;1.08;;;;;;;22.42;60.07;99835.50;4980372;28;20045;-74
2023/08/03 10:36:30;;;;;;;3.97;1.00;;;;;;;22.45;59.71;99843.94;4980340;28;20499;-74
2023/08/03 10:39:05;;;;;;;6.10;0.85;;;;;;;22.60;59.14;99843.97;4978819;28;20042;-73
2023/08/03 10:41:38;;;;;;;6.47;1.02;;;;;;;22.72;58.67;99847.03;4978962;28;20042;-74
2023/08/03 10:44:08;;;;;;;3.67;1.10;;;;;;;22.77;58.69;99841.19;4980028;28;20045;-75
2023/08/03 10:46:35;;;;;;;4.55;1.35;;;;;;;22.82;58.40;99852.91;4979722;28;20084;-74
2023/08/03 10:49:25;;;;;;;5.13;1.00;;;;;;;22.83;58.91;99857.25;4981118;28;20050;-72
2023/08/03 10:52:15;;;;;;;3.55;0.82;;;;;;;22.81;58.90;99853.94;4981643;28;20450;-74
2023/08/03 10:54:40;;;;;;;6.25;1.15;;;;;;;22.84;58.65;99858.06;4981130;28;20034;-75
2023/08/03 10:57:06;;;;;;;4.20;0.90;;;;;;;22.85;58.63;99865.03;4980479;28;20045;-80
2023/08/03 10:59:43;;;;;;;4.90;1.08;;;;;;;22.83;58.75;99867.84;4981702;28;20034;-77
2023/08/03 11:02:33;;;;;;;5.03;1.05;;;;;;;22.73;58.96;99875.25;4977127;28;20045;-72
2023/08/03 11:05:18;;;;;;;4.15;1.15;;;;;;;22.67;59.52;99886.59;4995402;28;20050;-74
2023/08/03 11:07:46;;;;;;;3.92;0.95;;;;;;;22.62;59.54;99886.28;4979560;28;20084;-70
2023/08/03 11:10:15;;;;;;;5.22;1.27;;;;;;;22.60;59.50;99890.94;4979929;28;20041;-75
2023/08/03 11:12:42;;;;;;;7.75;1.10;;;;;;;22.57;59.55;99897.47;4978349;28;20062;-71
2023/08/03 11:15:08;;;;;;;6.40;1.67;;;;;;;22.56;59.81;99897.63;4981115;28;20601;-75
2023/08/03 11:17:35;;;;;;;5.30;0.90;;;;;;;22.53;59.85;99901.47;4980366;28;20050;-77
2023/08/03 11:20:02;;;;;;;3.10;0.95;;;;;;;22.50;59.50;99907.13;4980333;28;20117;-76
2023/08/03 11:22:28;;;;;;;4.25;1.02;;;;;;;22.48;59.84;99900.31;4978777;28;20112;-77
2023/08/03 11:24:58;;;;;;;4.93;1.00;;;;;;;22.46;60.08;99897.84;4979604;28;20027;-76
2023/08/03 11:27:24;;;;;;;5.32;1.15;;;;;;;22.45;60.29;99912.94;4980454;28;20041;-77
2023/08/03 11:29:53;;;;;;;8.75;1.15;;;;;;;22.45;60.06;99923.56;4978739;28;20038;-77
2023/08/03 11:39:03;;;;;;;5.88;1.10;;;;;;;22.49;60.23;99934.66;5345926;23;20069;-75
2023/08/03 11:41:28;;;;;;;8.52;1.30;;;;;;;22.51;60.28;99937.13;4985932;28;20058;-73